createdAt,value
2018-12-17T00:00:27.754Z,1010.99
2018-12-17T00:01:27.742Z,1010.97
2018-12-17T00:02:27.728Z,1010.99
2018-12-17T00:03:27.734Z,1011.03
2018-12-17T00:04:27.730Z,1011.02
2018-12-17T00:05:27.717Z,1011.03
2018-12-17T00:06:27.708Z,1010.98
2018-12-17T00:07:27.701Z,1010.98
2018-12-17T00:08:31.993Z,1011.01
2018-12-17T00:09:27.683Z,1011.04
2018-12-17T00:10:27.661Z,1011.04
2018-12-17T00:11:27.665Z,1011.02
2018-12-17T00:12:27.622Z,1010.98
2018-12-17T00:13:27.619Z,1011.10
2018-12-17T00:14:27.597Z,1011.01
2018-12-17T00:15:27.588Z,1011.02
2018-12-17T00:16:27.576Z,1011.04
2018-12-17T00:17:27.564Z,1011.00
2018-12-17T00:18:27.554Z,1011.06
2018-12-17T00:19:27.544Z,1011.05
2018-12-17T00:20:27.533Z,1011.06
2018-12-17T00:21:27.521Z,1011.04
2018-12-17T00:22:27.515Z,1011.01
2018-12-17T00:23:27.501Z,1011.04
2018-12-17T00:24:27.489Z,1010.97
2018-12-17T00:25:27.479Z,1010.99
2018-12-17T00:26:27.467Z,1010.98
2018-12-17T00:27:27.456Z,1011.04
2018-12-17T00:28:27.448Z,1010.99
2018-12-17T00:29:27.435Z,1011.01
2018-12-17T00:30:27.447Z,1011.00
2018-12-17T00:31:27.414Z,1011.06
2018-12-17T00:32:27.403Z,1011.00
2018-12-17T00:33:27.394Z,1011.00
2018-12-17T00:34:27.381Z,1011.03
2018-12-17T00:35:27.369Z,1011.03
2018-12-17T00:36:27.360Z,1011.00
2018-12-17T00:37:27.349Z,1011.04
2018-12-17T00:38:27.338Z,1011.03
2018-12-17T00:39:27.326Z,1011.01
2018-12-17T00:40:27.317Z,1011.01
2018-12-17T00:41:27.305Z,1011.05
2018-12-17T00:42:27.297Z,1011.06
2018-12-17T00:43:27.282Z,1011.11
2018-12-17T00:44:27.273Z,1011.07
2018-12-17T00:45:27.261Z,1011.11
2018-12-17T00:46:27.251Z,1011.11
2018-12-17T00:47:27.239Z,1011.13
2018-12-17T00:48:27.230Z,1011.12
2018-12-17T00:49:27.224Z,1011.11
2018-12-17T00:50:27.206Z,1011.14
2018-12-17T00:51:27.198Z,1011.15
2018-12-17T00:52:27.188Z,1011.19
2018-12-17T00:53:45.311Z,1011.19
2018-12-17T00:55:08.721Z,1011.22
2018-12-17T00:56:08.710Z,1011.15
2018-12-17T00:57:50.255Z,1011.23
2018-12-17T00:58:50.242Z,1011.25
2018-12-17T01:00:32.274Z,1011.29
2018-12-17T01:01:32.264Z,1011.27
2018-12-17T01:02:32.253Z,1011.27
2018-12-17T01:03:32.241Z,1011.24
2018-12-17T01:04:32.229Z,1011.26
2018-12-17T01:05:32.222Z,1011.20
2018-12-17T01:06:32.209Z,1011.24
2018-12-17T01:07:32.201Z,1011.25
2018-12-17T01:08:32.187Z,1011.24
2018-12-17T01:09:32.181Z,1011.21
2018-12-17T01:10:32.165Z,1011.31
2018-12-17T01:11:32.154Z,1011.32
2018-12-17T01:12:32.145Z,1011.30
2018-12-17T01:13:32.132Z,1011.35
2018-12-17T01:14:32.122Z,1011.33
2018-12-17T01:15:32.111Z,1011.35
2018-12-17T01:16:32.107Z,1011.38
2018-12-17T01:17:32.092Z,1011.38
2018-12-17T01:18:32.081Z,1011.41
2018-12-17T01:19:32.084Z,1011.41
2018-12-17T01:20:32.056Z,1011.45
2018-12-17T01:21:32.046Z,1011.36
2018-12-17T01:22:32.037Z,1011.38
2018-12-17T01:23:32.024Z,1011.36
2018-12-17T01:24:32.012Z,1011.36
2018-12-17T01:25:32.002Z,1011.37
2018-12-17T01:26:31.993Z,1011.38
2018-12-17T01:27:31.980Z,1011.34
2018-12-17T01:28:31.968Z,1011.37
2018-12-17T01:29:31.962Z,1011.35
2018-12-17T01:30:31.947Z,1011.31
2018-12-17T01:31:31.941Z,1011.30
2018-12-17T01:32:31.927Z,1011.33
2018-12-17T01:33:31.919Z,1011.33
2018-12-17T01:34:31.904Z,1011.33
2018-12-17T01:35:31.892Z,1011.37
2018-12-17T01:36:31.882Z,1011.37
2018-12-17T01:37:31.871Z,1011.39
2018-12-17T01:38:31.859Z,1011.41
2018-12-17T01:39:31.854Z,1011.38
2018-12-17T01:40:31.843Z,1011.39
2018-12-17T01:41:31.827Z,1011.48
2018-12-17T01:42:31.818Z,1011.45
2018-12-17T01:43:31.806Z,1011.47
2018-12-17T01:44:31.796Z,1011.48
2018-12-17T01:45:31.788Z,1011.41
2018-12-17T01:46:31.776Z,1011.43
2018-12-17T01:47:31.764Z,1011.44
2018-12-17T01:48:31.751Z,1011.45
2018-12-17T01:49:31.741Z,1011.49
2018-12-17T01:50:31.731Z,1011.50
2018-12-17T01:51:31.718Z,1011.47
2018-12-17T01:52:31.707Z,1011.47
2018-12-17T01:53:31.698Z,1011.46
2018-12-17T01:54:31.685Z,1011.46
2018-12-17T01:55:31.674Z,1011.46
2018-12-17T01:56:31.664Z,1011.47
2018-12-17T01:57:31.653Z,1011.47
2018-12-17T01:58:31.642Z,1011.49
2018-12-17T01:59:31.632Z,1011.48
2018-12-17T02:00:31.622Z,1011.49
2018-12-17T02:01:31.610Z,1011.47
2018-12-17T02:02:31.599Z,1011.47
2018-12-17T02:03:31.588Z,1011.49
2018-12-17T02:04:31.579Z,1011.50
2018-12-17T02:05:31.568Z,1011.49
2018-12-17T02:06:31.556Z,1011.51
2018-12-17T02:07:31.545Z,1011.50
2018-12-17T02:08:31.540Z,1011.52
2018-12-17T02:09:31.521Z,1011.53
2018-12-17T02:10:31.513Z,1011.51
2018-12-17T02:11:31.500Z,1011.44
2018-12-17T02:12:31.492Z,1011.42
2018-12-17T02:13:31.479Z,1011.46
2018-12-17T02:14:31.466Z,1011.47
2018-12-17T02:15:31.458Z,1011.43
2018-12-17T02:16:31.446Z,1011.44
2018-12-17T02:17:31.440Z,1011.43
2018-12-17T02:18:31.424Z,1011.45
2018-12-17T02:19:31.414Z,1011.45
2018-12-17T02:20:31.405Z,1011.50
2018-12-17T02:21:31.394Z,1011.48
2018-12-17T02:22:31.381Z,1011.54
2018-12-17T02:23:31.370Z,1011.50
2018-12-17T02:24:31.359Z,1011.60
2018-12-17T02:25:31.353Z,1011.51
2018-12-17T02:26:31.336Z,1011.54
2018-12-17T02:27:31.325Z,1011.58
2018-12-17T02:28:36.116Z,1011.48
2018-12-17T02:29:32.305Z,1011.52
2018-12-17T02:30:31.294Z,1011.58
2018-12-17T02:31:31.282Z,1011.56
2018-12-17T02:32:31.272Z,1011.55
2018-12-17T02:33:31.261Z,1011.60
2018-12-17T02:34:31.251Z,1011.60
2018-12-17T02:35:31.239Z,1011.67
2018-12-17T02:36:31.231Z,1011.69
2018-12-17T02:37:31.217Z,1011.69
2018-12-17T02:38:31.206Z,1011.61
2018-12-17T02:39:31.195Z,1011.69
2018-12-17T02:40:31.185Z,1011.68
2018-12-17T02:41:31.173Z,1011.70
2018-12-17T02:42:31.172Z,1011.72
2018-12-17T02:43:31.152Z,1011.72
2018-12-17T02:44:31.141Z,1011.66
2018-12-17T02:45:31.132Z,1011.70
2018-12-17T02:46:31.119Z,1011.67
2018-12-17T02:47:31.108Z,1011.70
2018-12-17T02:48:31.098Z,1011.66
2018-12-17T02:49:31.086Z,1011.74
2018-12-17T02:50:31.075Z,1011.74
2018-12-17T02:51:31.068Z,1011.76
2018-12-17T02:52:31.056Z,1011.81
2018-12-17T02:53:31.048Z,1011.85
2018-12-17T02:54:31.036Z,1011.89
2018-12-17T02:55:31.021Z,1011.88
2018-12-17T02:56:31.010Z,1011.85
2018-12-17T02:57:49.137Z,1011.91
2018-12-17T02:59:12.541Z,1011.98
2018-12-17T03:00:30.665Z,1011.94
2018-12-17T03:02:12.217Z,1011.91
2018-12-17T03:03:12.191Z,1011.85
2018-12-17T03:04:35.601Z,1011.83
2018-12-17T03:05:35.591Z,1011.80
2018-12-17T03:07:17.138Z,1011.83
2018-12-17T03:08:17.123Z,1011.83
2018-12-17T03:09:58.670Z,1011.87
2018-12-17T03:10:58.658Z,1011.90
2018-12-17T03:12:29.128Z,1011.92
2018-12-17T03:13:29.114Z,1011.90
2018-12-17T03:15:10.678Z,1011.96
2018-12-17T03:16:10.645Z,1012.01
2018-12-17T03:17:52.386Z,1011.97
2018-12-17T03:18:52.375Z,1012.00
2018-12-17T03:20:33.921Z,1012.00
2018-12-17T03:21:33.907Z,1011.93
2018-12-17T03:23:04.375Z,1011.99
2018-12-17T03:24:04.368Z,1012.00
2018-12-17T03:25:45.902Z,1011.99
2018-12-17T03:26:45.891Z,1011.99
2018-12-17T03:28:27.434Z,1012.03
2018-12-17T03:29:27.420Z,1012.00
2018-12-17T03:31:09.000Z,1012.03
2018-12-17T03:32:08.956Z,1012.01
2018-12-17T03:33:08.944Z,1012.01
2018-12-17T03:34:08.936Z,1012.01
2018-12-17T03:35:08.923Z,1011.99
2018-12-17T03:36:08.909Z,1011.94
2018-12-17T03:37:08.899Z,1011.94
2018-12-17T03:38:08.890Z,1011.98
2018-12-17T03:39:08.878Z,1011.95
2018-12-17T03:40:08.869Z,1011.99
2018-12-17T03:41:08.856Z,1011.98
2018-12-17T03:42:08.846Z,1011.99
2018-12-17T03:43:08.840Z,1011.98
2018-12-17T03:44:08.827Z,1011.95
2018-12-17T03:45:08.814Z,1011.93
2018-12-17T03:46:08.803Z,1011.92
2018-12-17T03:47:08.791Z,1011.96
2018-12-17T03:48:08.780Z,1011.95
2018-12-17T03:49:08.770Z,1012.01
2018-12-17T03:50:08.757Z,1011.91
2018-12-17T03:51:08.750Z,1011.93
2018-12-17T03:52:08.737Z,1011.99
2018-12-17T03:53:08.725Z,1012.01
2018-12-17T03:54:08.716Z,1011.98
2018-12-17T03:55:08.705Z,1011.95
2018-12-17T03:56:08.702Z,1011.99
2018-12-17T03:57:08.682Z,1012.00
2018-12-17T03:58:08.672Z,1012.02
2018-12-17T03:59:08.662Z,1012.02
2018-12-17T04:00:08.674Z,1012.03
2018-12-17T04:01:08.638Z,1012.02
2018-12-17T04:02:08.627Z,1012.00
2018-12-17T04:03:08.617Z,1012.02
2018-12-17T04:04:08.605Z,1012.04
2018-12-17T04:05:08.595Z,1012.03
2018-12-17T04:06:08.584Z,1012.02
2018-12-17T04:07:08.577Z,1012.10
2018-12-17T04:08:08.565Z,1012.12
2018-12-17T04:09:08.554Z,1012.16
2018-12-17T04:10:08.542Z,1012.07
2018-12-17T04:11:08.528Z,1012.08
2018-12-17T04:12:08.524Z,1012.09
2018-12-17T04:13:08.509Z,1012.05
2018-12-17T04:14:08.497Z,1012.06
2018-12-17T04:15:08.487Z,1012.08
2018-12-17T04:16:08.474Z,1012.09
2018-12-17T04:17:08.464Z,1012.14
2018-12-17T04:18:08.455Z,1012.13
2018-12-17T04:19:08.442Z,1012.23
2018-12-17T04:20:08.430Z,1012.24
2018-12-17T04:21:08.422Z,1012.14
2018-12-17T04:22:08.411Z,1012.21
2018-12-17T04:23:08.399Z,1012.17
2018-12-17T04:24:08.388Z,1012.17
2018-12-17T04:25:08.376Z,1012.20
2018-12-17T04:26:08.367Z,1012.18
2018-12-17T04:27:08.354Z,1012.13
2018-12-17T04:28:08.345Z,1012.16
2018-12-17T04:29:08.347Z,1012.20
2018-12-17T04:30:08.323Z,1012.16
2018-12-17T04:31:08.312Z,1012.20
2018-12-17T04:32:08.300Z,1012.26
2018-12-17T04:33:08.289Z,1012.24
2018-12-17T04:34:08.279Z,1012.22
2018-12-17T04:35:08.268Z,1012.24
2018-12-17T04:36:08.259Z,1012.23
2018-12-17T04:37:08.245Z,1012.31
2018-12-17T04:38:08.235Z,1012.35
2018-12-17T04:39:08.223Z,1012.37
2018-12-17T04:40:08.213Z,1012.35
2018-12-17T04:41:08.204Z,1012.32
2018-12-17T04:42:08.194Z,1012.33
2018-12-17T04:43:08.183Z,1012.30
2018-12-17T04:44:08.171Z,1012.29
2018-12-17T04:45:08.162Z,1012.28
2018-12-17T04:46:08.149Z,1012.41
2018-12-17T04:47:08.138Z,1012.38
2018-12-17T04:48:08.126Z,1012.46
2018-12-17T04:49:08.119Z,1012.47
2018-12-17T04:50:08.105Z,1012.49
2018-12-17T04:51:08.094Z,1012.49
2018-12-17T04:52:08.086Z,1012.46
2018-12-17T04:53:08.073Z,1012.46
2018-12-17T04:54:08.063Z,1012.45
2018-12-17T04:55:08.064Z,1012.48
2018-12-17T04:56:08.068Z,1012.48
2018-12-17T04:57:08.029Z,1012.45
2018-12-17T04:58:08.018Z,1012.51
2018-12-17T04:59:14.396Z,1012.49
2018-12-17T05:00:08.997Z,1012.53
2018-12-17T05:02:34.947Z,1012.53
2018-12-17T05:03:53.066Z,1012.52
2018-12-17T05:06:43.915Z,1012.57
2018-12-17T05:07:43.900Z,1012.58
2018-12-17T05:08:43.891Z,1012.59
2018-12-17T05:09:44.540Z,1012.60
2018-12-17T05:10:43.875Z,1012.63
2018-12-17T05:11:43.856Z,1012.59
2018-12-17T05:12:43.913Z,1012.58
2018-12-17T05:13:43.847Z,1012.58
2018-12-17T05:14:43.824Z,1012.61
2018-12-17T05:15:43.813Z,1012.62
2018-12-17T05:16:43.802Z,1012.67
2018-12-17T05:17:43.794Z,1012.64
2018-12-17T05:18:43.781Z,1012.63
2018-12-17T05:19:43.773Z,1012.65
2018-12-17T05:20:43.757Z,1012.69
2018-12-17T05:21:43.747Z,1012.63
2018-12-17T05:22:43.738Z,1012.68
2018-12-17T05:23:43.731Z,1012.71
2018-12-17T05:24:43.717Z,1012.63
2018-12-17T05:25:43.705Z,1012.70
2018-12-17T05:26:43.694Z,1012.73
2018-12-17T05:27:43.682Z,1012.71
2018-12-17T05:28:43.676Z,1012.75
2018-12-17T05:29:43.663Z,1012.74
2018-12-17T05:30:43.650Z,1012.74
2018-12-17T05:31:43.638Z,1012.76
2018-12-17T05:32:43.631Z,1012.77
2018-12-17T05:33:43.615Z,1012.79
2018-12-17T05:34:43.604Z,1012.83
2018-12-17T05:35:43.594Z,1012.78
2018-12-17T05:36:43.584Z,1012.84
2018-12-17T05:37:43.574Z,1012.85
2018-12-17T05:38:43.562Z,1012.89
2018-12-17T05:39:43.557Z,1012.87
2018-12-17T05:40:43.540Z,1012.85
2018-12-17T05:41:43.535Z,1012.84
2018-12-17T05:42:43.521Z,1012.86
2018-12-17T05:43:43.508Z,1012.87
2018-12-17T05:44:43.495Z,1012.85
2018-12-17T05:45:43.491Z,1012.84
2018-12-17T05:46:43.473Z,1012.86
2018-12-17T05:47:43.462Z,1012.87
2018-12-17T05:48:43.451Z,1012.85
2018-12-17T05:49:43.440Z,1012.83
2018-12-17T05:50:43.431Z,1012.89
2018-12-17T05:51:43.418Z,1012.92
2018-12-17T05:52:43.410Z,1012.94
2018-12-17T05:53:43.396Z,1012.94
2018-12-17T05:54:43.385Z,1013.02
2018-12-17T05:55:44.301Z,1013.00
2018-12-17T05:56:43.363Z,1013.08
2018-12-17T05:57:43.351Z,1013.06
2018-12-17T05:58:43.339Z,1013.01
2018-12-17T05:59:43.329Z,1013.02
2018-12-17T06:00:43.319Z,1013.06
2018-12-17T06:01:43.308Z,1013.10
2018-12-17T06:02:43.296Z,1013.17
2018-12-17T06:03:43.288Z,1013.19
2018-12-17T06:04:43.273Z,1013.20
2018-12-17T06:05:43.263Z,1013.17
2018-12-17T06:06:43.254Z,1013.21
2018-12-17T06:07:43.240Z,1013.24
2018-12-17T06:08:43.243Z,1013.29
2018-12-17T06:09:43.218Z,1013.34
2018-12-17T06:10:43.213Z,1013.29
2018-12-17T06:11:43.199Z,1013.36
2018-12-17T06:12:43.251Z,1013.36
2018-12-17T06:13:43.177Z,1013.39
2018-12-17T06:14:43.166Z,1013.35
2018-12-17T06:15:43.153Z,1013.42
2018-12-17T06:16:43.143Z,1013.43
2018-12-17T06:17:43.130Z,1013.40
2018-12-17T06:18:43.121Z,1013.47
2018-12-17T06:19:43.109Z,1013.45
2018-12-17T06:20:43.097Z,1013.44
2018-12-17T06:21:43.087Z,1013.38
2018-12-17T06:22:43.083Z,1013.44
2018-12-17T06:23:43.066Z,1013.45
2018-12-17T06:24:43.053Z,1013.48
2018-12-17T06:25:43.043Z,1013.50
2018-12-17T06:26:43.032Z,1013.45
2018-12-17T06:27:43.023Z,1013.50
2018-12-17T06:28:43.010Z,1013.47
2018-12-17T06:29:43.002Z,1013.54
2018-12-17T06:30:42.992Z,1013.49
2018-12-17T06:31:42.978Z,1013.50
2018-12-17T06:32:42.966Z,1013.54
2018-12-17T06:33:42.957Z,1013.60
2018-12-17T06:34:42.944Z,1013.59
2018-12-17T06:35:42.933Z,1013.59
2018-12-17T06:36:42.924Z,1013.59
2018-12-17T06:37:42.919Z,1013.63
2018-12-17T06:38:42.938Z,1013.60
2018-12-17T06:39:42.889Z,1013.60
2018-12-17T06:40:42.877Z,1013.65
2018-12-17T06:41:42.869Z,1013.65
2018-12-17T06:42:42.855Z,1013.68
2018-12-17T06:43:42.850Z,1013.66
2018-12-17T06:44:42.840Z,1013.65
2018-12-17T06:45:42.823Z,1013.68
2018-12-17T06:46:42.816Z,1013.66
2018-12-17T06:47:42.803Z,1013.70
2018-12-17T06:48:42.791Z,1013.70
2018-12-17T06:49:42.781Z,1013.69
2018-12-17T06:50:42.768Z,1013.71
2018-12-17T06:51:42.759Z,1013.72
2018-12-17T06:52:42.745Z,1013.78
2018-12-17T06:53:42.737Z,1013.78
2018-12-17T06:54:42.725Z,1013.79
2018-12-17T06:55:42.714Z,1013.83
2018-12-17T06:56:42.702Z,1013.82
2018-12-17T06:57:42.692Z,1013.81
2018-12-17T06:58:42.682Z,1013.82
2018-12-17T06:59:43.060Z,1013.87
2018-12-17T07:00:42.658Z,1013.87
2018-12-17T07:01:42.647Z,1013.86
2018-12-17T07:02:42.636Z,1013.85
2018-12-17T07:03:42.625Z,1013.93
2018-12-17T07:04:42.622Z,1013.95
2018-12-17T07:05:42.605Z,1013.95
2018-12-17T07:06:42.597Z,1013.92
2018-12-17T07:08:02.206Z,1013.95
2018-12-17T07:09:24.615Z,1013.92
2018-12-17T07:10:44.229Z,1013.92
2018-12-17T07:12:06.145Z,1013.95
2018-12-17T07:13:06.133Z,1014.03
2018-12-17T07:14:48.167Z,1014.06
2018-12-17T07:15:48.161Z,1014.04
2018-12-17T07:16:48.145Z,1014.04
2018-12-17T07:17:48.134Z,1014.08
2018-12-17T07:18:48.126Z,1014.10
2018-12-17T07:19:48.113Z,1014.10
2018-12-17T07:20:48.104Z,1014.16
2018-12-17T07:21:48.092Z,1014.21
2018-12-17T07:22:48.084Z,1014.25
2018-12-17T07:23:48.071Z,1014.25
2018-12-17T07:24:48.059Z,1014.24
2018-12-17T07:25:48.050Z,1014.25
2018-12-17T07:26:48.040Z,1014.23
2018-12-17T07:27:48.025Z,1014.26
2018-12-17T07:28:48.015Z,1014.26
2018-12-17T07:29:49.865Z,1014.20
2018-12-17T07:30:47.994Z,1014.25
2018-12-17T07:31:47.984Z,1014.25
2018-12-17T07:32:47.973Z,1014.27
2018-12-17T07:33:47.962Z,1014.32
2018-12-17T07:34:47.950Z,1014.24
2018-12-17T07:35:47.940Z,1014.27
2018-12-17T07:36:47.929Z,1014.33
2018-12-17T07:37:47.918Z,1014.31
2018-12-17T07:38:47.908Z,1014.33
2018-12-17T07:39:47.898Z,1014.35
2018-12-17T07:40:47.886Z,1014.35
2018-12-17T07:41:47.875Z,1014.36
2018-12-17T07:42:47.864Z,1014.40
2018-12-17T07:43:47.852Z,1014.40
2018-12-17T07:44:47.841Z,1014.42
2018-12-17T07:45:47.829Z,1014.45
2018-12-17T07:46:47.825Z,1014.41
2018-12-17T07:47:47.821Z,1014.47
2018-12-17T07:48:47.797Z,1014.44
2018-12-17T07:49:47.786Z,1014.41
2018-12-17T07:50:47.779Z,1014.45
2018-12-17T07:51:47.777Z,1014.47
2018-12-17T07:52:47.753Z,1014.44
2018-12-17T07:53:47.746Z,1014.43
2018-12-17T07:54:47.733Z,1014.43
2018-12-17T07:55:47.731Z,1014.46
2018-12-17T07:56:47.711Z,1014.50
2018-12-17T07:57:47.699Z,1014.46
2018-12-17T07:58:47.688Z,1014.44
2018-12-17T07:59:47.679Z,1014.46
2018-12-17T08:00:47.665Z,1014.43
2018-12-17T08:01:47.655Z,1014.45
2018-12-17T08:02:47.646Z,1014.49
2018-12-17T08:03:47.635Z,1014.39
2018-12-17T08:04:47.622Z,1014.43
2018-12-17T08:05:47.612Z,1014.45
2018-12-17T08:06:47.601Z,1014.51
2018-12-17T08:07:47.591Z,1014.46
2018-12-17T08:08:47.581Z,1014.50
2018-12-17T08:09:47.570Z,1014.56
2018-12-17T08:10:47.559Z,1014.57
2018-12-17T08:11:47.546Z,1014.54
2018-12-17T08:12:47.537Z,1014.59
2018-12-17T08:13:47.526Z,1014.58
2018-12-17T08:14:47.513Z,1014.60
2018-12-17T08:15:47.506Z,1014.62
2018-12-17T08:16:47.495Z,1014.67
2018-12-17T08:17:47.481Z,1014.67
2018-12-17T08:18:47.470Z,1014.66
2018-12-17T08:19:47.459Z,1014.69
2018-12-17T08:20:47.452Z,1014.70
2018-12-17T08:21:47.437Z,1014.73
2018-12-17T08:22:47.427Z,1014.67
2018-12-17T08:23:47.418Z,1014.72
2018-12-17T08:24:47.408Z,1014.72
2018-12-17T08:25:47.395Z,1014.74
2018-12-17T08:26:47.388Z,1014.71
2018-12-17T08:27:47.371Z,1014.74
2018-12-17T08:28:47.445Z,1014.74
2018-12-17T08:29:47.349Z,1014.83
2018-12-17T08:30:47.339Z,1014.76
2018-12-17T08:31:47.327Z,1014.79
2018-12-17T08:32:47.317Z,1014.79
2018-12-17T08:33:47.313Z,1014.81
2018-12-17T08:34:47.295Z,1014.78
2018-12-17T08:35:47.284Z,1014.83
2018-12-17T08:36:47.273Z,1014.78
2018-12-17T08:37:47.274Z,1014.83
2018-12-17T08:38:47.251Z,1014.88
2018-12-17T08:39:47.241Z,1014.84
2018-12-17T08:40:47.233Z,1014.83
2018-12-17T08:41:47.218Z,1014.87
2018-12-17T08:42:47.207Z,1014.85
2018-12-17T08:43:47.200Z,1014.92
2018-12-17T08:44:47.188Z,1014.95
2018-12-17T08:45:47.176Z,1014.91
2018-12-17T08:46:47.164Z,1014.96
2018-12-17T08:47:47.153Z,1015.03
2018-12-17T08:48:47.143Z,1015.00
2018-12-17T08:49:47.132Z,1015.00
2018-12-17T08:50:47.121Z,1015.02
2018-12-17T08:51:47.110Z,1015.02
2018-12-17T08:52:47.103Z,1015.07
2018-12-17T08:53:47.099Z,1015.06
2018-12-17T08:54:47.077Z,1015.07
2018-12-17T08:55:47.070Z,1015.06
2018-12-17T08:56:47.055Z,1015.12
2018-12-17T08:57:47.045Z,1015.13
2018-12-17T08:58:47.037Z,1015.13
2018-12-17T08:59:47.024Z,1015.14
2018-12-17T09:00:47.013Z,1015.12
2018-12-17T09:01:47.000Z,1015.07
2018-12-17T09:02:46.990Z,1015.12
2018-12-17T09:03:46.982Z,1015.10
2018-12-17T09:04:46.968Z,1015.14
2018-12-17T09:05:46.959Z,1015.14
2018-12-17T09:06:46.949Z,1015.19
2018-12-17T09:07:46.935Z,1015.19
2018-12-17T09:08:46.925Z,1015.20
2018-12-17T09:09:46.914Z,1015.22
2018-12-17T09:10:46.903Z,1015.22
2018-12-17T09:11:46.892Z,1015.23
2018-12-17T09:12:46.883Z,1015.24
2018-12-17T09:13:46.872Z,1015.24
2018-12-17T09:14:46.859Z,1015.21
2018-12-17T09:15:46.848Z,1015.29
2018-12-17T09:16:46.837Z,1015.34
2018-12-17T09:17:46.827Z,1015.33
2018-12-17T09:18:46.817Z,1015.31
2018-12-17T09:19:46.807Z,1015.25
2018-12-17T09:20:46.803Z,1015.30
2018-12-17T09:21:46.787Z,1015.34
2018-12-17T09:22:46.772Z,1015.31
2018-12-17T09:23:46.764Z,1015.29
2018-12-17T09:24:46.750Z,1015.28
2018-12-17T09:25:46.741Z,1015.33
2018-12-17T09:26:46.730Z,1015.33
2018-12-17T09:27:46.719Z,1015.34
2018-12-17T09:29:04.846Z,1015.37
2018-12-17T09:30:28.752Z,1015.39
2018-12-17T09:31:28.734Z,1015.35
2018-12-17T09:32:28.722Z,1015.40
2018-12-17T09:33:46.846Z,1015.34
2018-12-17T09:35:10.258Z,1015.35
2018-12-17T09:36:10.240Z,1015.35
2018-12-17T09:37:51.784Z,1015.40
2018-12-17T09:38:51.770Z,1015.40
2018-12-17T09:40:33.325Z,1015.46
2018-12-17T09:41:33.303Z,1015.39
2018-12-17T09:43:03.774Z,1015.47
2018-12-17T09:44:03.917Z,1015.45
2018-12-17T09:45:45.306Z,1015.47
2018-12-17T09:46:45.292Z,1015.43
2018-12-17T09:48:26.839Z,1015.52
2018-12-17T09:49:26.824Z,1015.48
2018-12-17T09:51:08.367Z,1015.52
2018-12-17T09:52:08.354Z,1015.45
2018-12-17T09:53:50.390Z,1015.46
2018-12-17T09:54:50.425Z,1015.34
2018-12-17T09:55:50.368Z,1015.36
2018-12-17T09:56:50.357Z,1015.35
2018-12-17T09:57:50.345Z,1015.39
2018-12-17T09:58:50.335Z,1015.37
2018-12-17T09:59:50.325Z,1015.35
2018-12-17T10:00:50.313Z,1015.34
2018-12-17T10:01:50.303Z,1015.36
2018-12-17T10:02:50.292Z,1015.34
2018-12-17T10:03:50.280Z,1015.36
2018-12-17T10:04:50.271Z,1015.35
2018-12-17T10:05:50.258Z,1015.34
2018-12-17T10:06:50.248Z,1015.35
2018-12-17T10:07:50.237Z,1015.31
2018-12-17T10:08:50.226Z,1015.31
2018-12-17T10:09:50.215Z,1015.33
2018-12-17T10:10:50.203Z,1015.34
2018-12-17T10:11:50.192Z,1015.33
2018-12-17T10:12:50.183Z,1015.31
2018-12-17T10:13:50.170Z,1015.27
2018-12-17T10:14:50.160Z,1015.29
2018-12-17T10:15:50.149Z,1015.33
2018-12-17T10:16:50.138Z,1015.33
2018-12-17T10:17:50.127Z,1015.29
2018-12-17T10:18:50.118Z,1015.32
2018-12-17T10:19:50.113Z,1015.29
2018-12-17T10:20:50.094Z,1015.32
2018-12-17T10:21:50.082Z,1015.34
2018-12-17T10:22:50.071Z,1015.33
2018-12-17T10:23:50.066Z,1015.35
2018-12-17T10:24:50.049Z,1015.35
2018-12-17T10:25:50.039Z,1015.33
2018-12-17T10:26:50.098Z,1015.35
2018-12-17T10:27:50.015Z,1015.40
2018-12-17T10:28:50.006Z,1015.34
2018-12-17T10:29:49.997Z,1015.35
2018-12-17T10:30:49.982Z,1015.37
2018-12-17T10:31:49.972Z,1015.38
2018-12-17T10:32:49.962Z,1015.45
2018-12-17T10:33:49.949Z,1015.43
2018-12-17T10:34:49.938Z,1015.42
2018-12-17T10:35:49.929Z,1015.45
2018-12-17T10:36:49.916Z,1015.48
2018-12-17T10:37:49.906Z,1015.48
2018-12-17T10:38:49.896Z,1015.47
2018-12-17T10:39:49.882Z,1015.50
2018-12-17T10:40:49.882Z,1015.52
2018-12-17T10:41:49.861Z,1015.52
2018-12-17T10:42:49.849Z,1015.50
2018-12-17T10:43:49.838Z,1015.47
2018-12-17T10:44:49.830Z,1015.45
2018-12-17T10:45:49.815Z,1015.46
2018-12-17T10:46:49.805Z,1015.49
2018-12-17T10:47:49.799Z,1015.54
2018-12-17T10:48:49.783Z,1015.48
2018-12-17T10:49:49.771Z,1015.48
2018-12-17T10:50:49.764Z,1015.48
2018-12-17T10:51:49.754Z,1015.50
2018-12-17T10:52:49.739Z,1015.50
2018-12-17T10:53:49.728Z,1015.54
2018-12-17T10:54:49.717Z,1015.49
2018-12-17T10:55:49.704Z,1015.51
2018-12-17T10:56:49.694Z,1015.54
2018-12-17T10:57:49.686Z,1015.51
2018-12-17T10:58:49.672Z,1015.51
2018-12-17T10:59:49.663Z,1015.46
2018-12-17T11:00:49.649Z,1015.52
2018-12-17T11:01:49.639Z,1015.49
2018-12-17T11:02:49.626Z,1015.53
2018-12-17T11:03:49.616Z,1015.49
2018-12-17T11:04:49.605Z,1015.46
2018-12-17T11:05:49.595Z,1015.44
2018-12-17T11:06:49.583Z,1015.44
2018-12-17T11:07:49.572Z,1015.46
2018-12-17T11:08:49.563Z,1015.47
2018-12-17T11:09:49.553Z,1015.45
2018-12-17T11:10:49.538Z,1015.54
2018-12-17T11:11:49.527Z,1015.51
2018-12-17T11:12:49.516Z,1015.53
2018-12-17T11:13:49.507Z,1015.52
2018-12-17T11:14:49.494Z,1015.52
2018-12-17T11:15:49.483Z,1015.49
2018-12-17T11:16:49.473Z,1015.50
2018-12-17T11:17:49.461Z,1015.49
2018-12-17T11:18:49.449Z,1015.55
2018-12-17T11:19:49.455Z,1015.49
2018-12-17T11:20:49.430Z,1015.54
2018-12-17T11:21:49.416Z,1015.48
2018-12-17T11:22:49.407Z,1015.45
2018-12-17T11:23:49.394Z,1015.48
2018-12-17T11:24:49.386Z,1015.51
2018-12-17T11:25:49.375Z,1015.47
2018-12-17T11:26:49.361Z,1015.41
2018-12-17T11:27:49.355Z,1015.46
2018-12-17T11:28:49.340Z,1015.43
2018-12-17T11:29:49.331Z,1015.42
2018-12-17T11:30:49.316Z,1015.48
2018-12-17T11:31:49.306Z,1015.48
2018-12-17T11:32:49.294Z,1015.46
2018-12-17T11:33:49.290Z,1015.45
2018-12-17T11:34:49.273Z,1015.41
2018-12-17T11:35:49.262Z,1015.42
2018-12-17T11:36:49.251Z,1015.43
2018-12-17T11:37:49.239Z,1015.36
2018-12-17T11:38:49.227Z,1015.38
2018-12-17T11:39:49.216Z,1015.40
2018-12-17T11:40:49.206Z,1015.42
2018-12-17T11:41:49.193Z,1015.38
2018-12-17T11:42:49.186Z,1015.42
2018-12-17T11:43:49.172Z,1015.42
2018-12-17T11:44:49.163Z,1015.42
2018-12-17T11:45:49.150Z,1015.38
2018-12-17T11:46:49.139Z,1015.38
2018-12-17T11:47:49.129Z,1015.43
2018-12-17T11:48:49.119Z,1015.37
2018-12-17T11:49:49.105Z,1015.38
2018-12-17T11:50:49.096Z,1015.35
2018-12-17T11:51:49.087Z,1015.29
2018-12-17T11:52:49.072Z,1015.29
2018-12-17T11:53:49.066Z,1015.28
2018-12-17T11:54:49.053Z,1015.28
2018-12-17T11:55:49.039Z,1015.28
2018-12-17T11:56:49.028Z,1015.29
2018-12-17T11:57:49.023Z,1015.26
2018-12-17T11:58:49.006Z,1015.30
2018-12-17T11:59:48.997Z,1015.29
2018-12-17T12:00:53.736Z,1015.24
2018-12-17T12:01:49.972Z,1015.24
2018-12-17T12:02:48.962Z,1015.25
2018-12-17T12:03:48.950Z,1015.27
2018-12-17T12:04:48.939Z,1015.31
2018-12-17T12:05:48.929Z,1015.34
2018-12-17T12:06:48.917Z,1015.36
2018-12-17T12:07:48.908Z,1015.35
2018-12-17T12:08:48.896Z,1015.41
2018-12-17T12:09:48.884Z,1015.39
2018-12-17T12:10:48.874Z,1015.39
2018-12-17T12:11:48.862Z,1015.42
2018-12-17T12:12:48.851Z,1015.44
2018-12-17T12:13:48.841Z,1015.41
2018-12-17T12:14:48.829Z,1015.49
2018-12-17T12:15:48.819Z,1015.43
2018-12-17T12:16:48.807Z,1015.42
2018-12-17T12:17:48.800Z,1015.45
2018-12-17T12:18:48.788Z,1015.41
2018-12-17T12:19:48.774Z,1015.43
2018-12-17T12:20:48.765Z,1015.42
2018-12-17T12:21:48.751Z,1015.43
2018-12-17T12:22:48.741Z,1015.43
2018-12-17T12:23:48.731Z,1015.52
2018-12-17T12:24:48.718Z,1015.52
2018-12-17T12:25:48.713Z,1015.55
2018-12-17T12:26:48.699Z,1015.52
2018-12-17T12:27:48.685Z,1015.60